createdAt,value
2023-04-26T00:00:09.604Z,92.95
2023-04-26T00:03:00.236Z,93.03
2023-04-26T00:05:29.262Z,92.93
2023-04-26T00:07:57.706Z,92.93
2023-04-26T00:10:26.171Z,92.90
2023-04-26T00:12:54.529Z,92.79
2023-04-26T00:15:23.013Z,93.04
2023-04-26T00:17:51.510Z,93.19
2023-04-26T00:20:20.091Z,92.65
2023-04-26T00:22:48.473Z,93.09
2023-04-26T00:25:16.890Z,93.50
2023-04-26T00:27:47.184Z,93.84
2023-04-26T00:30:16.341Z,93.96
2023-04-26T00:32:46.480Z,93.40
2023-04-26T00:35:14.853Z,93.67
2023-04-26T00:37:43.115Z,93.08
2023-04-26T00:40:15.570Z,93.22
2023-04-26T00:42:43.912Z,93.12
2023-04-26T00:45:12.626Z,93.40
2023-04-26T00:47:41.410Z,93.32
2023-04-26T00:50:10.619Z,92.57
2023-04-26T00:52:40.501Z,92.15
2023-04-26T00:55:10.257Z,92.11
2023-04-26T00:57:40.274Z,92.04
2023-04-26T01:00:11.253Z,91.85
2023-04-26T01:02:39.783Z,91.62
2023-04-26T01:05:09.574Z,91.92
2023-04-26T01:07:38.341Z,91.69
2023-04-26T01:10:09.499Z,91.43
2023-04-26T01:12:38.695Z,91.50
2023-04-26T01:15:08.985Z,91.31
2023-04-26T01:17:37.927Z,91.35
2023-04-26T01:20:09.857Z,91.04
2023-04-26T01:22:38.283Z,90.77
2023-04-26T01:25:11.593Z,91.15
2023-04-26T01:27:39.948Z,90.90
2023-04-26T01:30:10.173Z,90.97
2023-04-26T01:32:38.598Z,91.05
2023-04-26T01:35:07.591Z,91.03
2023-04-26T01:37:35.953Z,91.40
2023-04-26T01:40:06.558Z,91.05
2023-04-26T01:42:34.931Z,91.05
2023-04-26T01:45:03.755Z,90.92
2023-04-26T01:47:32.284Z,91.77
2023-04-26T01:50:00.788Z,91.85
2023-04-26T01:52:29.224Z,92.05
2023-04-26T01:54:57.537Z,91.83
2023-04-26T01:57:25.822Z,91.64
2023-04-26T01:59:55.380Z,92.07
2023-04-26T02:02:23.868Z,92.29
2023-04-26T02:04:52.216Z,91.88
2023-04-26T02:07:20.575Z,92.00
2023-04-26T02:09:48.884Z,91.82
2023-04-26T02:12:17.282Z,92.07
2023-04-26T02:14:45.733Z,91.51
2023-04-26T02:17:15.805Z,91.61
2023-04-26T02:19:44.159Z,91.23
2023-04-26T02:22:12.737Z,91.35
2023-04-26T02:24:41.376Z,91.31
2023-04-26T02:27:09.751Z,91.43
2023-04-26T02:29:44.409Z,91.21
2023-04-26T02:32:13.936Z,91.46
2023-04-26T02:34:42.595Z,91.72
2023-04-26T02:37:10.939Z,91.45
2023-04-26T02:39:39.279Z,91.38
2023-04-26T02:42:10.381Z,91.33
2023-04-26T02:44:39.254Z,91.39
2023-04-26T02:47:07.916Z,91.45
2023-04-26T02:49:36.571Z,91.40
2023-04-26T02:52:05.278Z,91.43
2023-04-26T02:54:33.622Z,91.74
2023-04-26T02:57:01.995Z,92.18
2023-04-26T02:59:30.392Z,92.22
2023-04-26T03:01:58.801Z,92.41
2023-04-26T03:04:28.218Z,92.56
2023-04-26T03:06:56.563Z,92.67
2023-04-26T03:09:25.423Z,92.30
2023-04-26T03:11:53.732Z,92.27
2023-04-26T03:14:24.932Z,92.40
2023-04-26T03:16:54.318Z,92.65
2023-04-26T03:19:22.667Z,92.87
2023-04-26T03:21:51.070Z,92.38
2023-04-26T03:24:19.770Z,92.28
2023-04-26T03:26:48.175Z,91.96
2023-04-26T03:29:18.094Z,91.76
2023-04-26T03:31:46.800Z,91.68
2023-04-26T03:34:15.264Z,91.59
2023-04-26T03:36:43.647Z,91.41
2023-04-26T03:39:12.653Z,90.79
2023-04-26T03:41:40.988Z,90.79
2023-04-26T03:44:09.242Z,90.57
2023-04-26T03:46:37.682Z,90.48
2023-04-26T03:49:05.975Z,89.93
2023-04-26T03:51:34.465Z,89.87
2023-04-26T03:54:03.497Z,89.58
2023-04-26T03:56:31.821Z,89.36
2023-04-26T03:59:00.134Z,88.83
2023-04-26T04:01:28.782Z,88.63
2023-04-26T04:03:57.353Z,88.39
2023-04-26T04:06:25.891Z,88.35
2023-04-26T04:08:54.837Z,88.05
2023-04-26T04:11:23.328Z,87.54
2023-04-26T04:13:51.662Z,86.65
2023-04-26T04:16:20.142Z,86.64
2023-04-26T04:18:48.561Z,86.67
2023-04-26T04:21:16.931Z,86.64
2023-04-26T04:23:45.303Z,86.91
2023-04-26T04:26:13.732Z,86.76
2023-04-26T04:28:42.325Z,85.75
2023-04-26T04:31:11.049Z,85.59
2023-04-26T04:33:39.537Z,84.74
2023-04-26T04:36:08.974Z,84.64
2023-04-26T04:38:37.741Z,83.45
2023-04-26T04:41:07.869Z,83.35
2023-04-26T04:43:36.604Z,83.08
2023-04-26T04:46:04.968Z,83.51
2023-04-26T04:48:33.254Z,83.18
2023-04-26T04:51:02.383Z,82.71
2023-04-26T04:53:31.259Z,82.62
2023-04-26T04:55:59.535Z,82.88
2023-04-26T04:58:27.884Z,82.59
2023-04-26T05:00:56.380Z,82.37
2023-04-26T05:03:25.191Z,82.39
2023-04-26T05:05:53.488Z,82.39
2023-04-26T05:08:21.952Z,82.28
2023-04-26T05:10:51.095Z,82.30
2023-04-26T05:13:19.381Z,82.37
2023-04-26T05:15:47.721Z,81.59
2023-04-26T05:18:15.953Z,81.31
2023-04-26T05:20:44.293Z,80.92
2023-04-26T05:23:12.826Z,80.66
2023-04-26T05:25:41.309Z,80.77
2023-04-26T05:28:12.075Z,81.14
2023-04-26T05:30:40.601Z,80.83
2023-04-26T05:33:09.032Z,80.72
2023-04-26T05:35:37.307Z,79.58
2023-04-26T05:38:06.135Z,79.61
2023-04-26T05:40:34.540Z,79.57
2023-04-26T05:43:03.232Z,79.84
2023-04-26T05:45:32.040Z,79.03
2023-04-26T05:48:00.729Z,78.64
2023-04-26T05:50:29.161Z,78.35
2023-04-26T05:52:57.882Z,79.04
2023-04-26T05:55:26.538Z,79.16
2023-04-26T05:57:54.776Z,79.44
2023-04-26T06:00:24.829Z,79.32
2023-04-26T06:02:53.643Z,79.65
2023-04-26T06:05:22.906Z,79.10
2023-04-26T06:07:51.950Z,79.10
2023-04-26T06:10:20.913Z,78.85
2023-04-26T06:12:49.495Z,78.70
2023-04-26T06:15:18.549Z,78.88
2023-04-26T06:17:47.669Z,78.95
2023-04-26T06:20:16.383Z,78.38
2023-04-26T06:22:45.401Z,78.51
2023-04-26T06:25:14.282Z,78.81
2023-04-26T06:27:43.347Z,77.90
2023-04-26T06:30:13.649Z,77.80
2023-04-26T06:32:42.485Z,78.47
2023-04-26T06:35:11.034Z,78.21
2023-04-26T06:37:39.478Z,77.54
2023-04-26T06:40:10.628Z,77.27
2023-04-26T06:42:39.176Z,76.43
2023-04-26T06:45:10.838Z,73.79
2023-04-26T06:47:39.314Z,72.39
2023-04-26T06:50:10.715Z,73.30
2023-04-26T06:52:39.168Z,71.90
2023-04-26T06:55:09.975Z,71.38
2023-04-26T06:57:38.965Z,71.98
2023-04-26T07:00:10.548Z,71.76
2023-04-26T07:02:38.989Z,71.71
2023-04-26T07:05:09.066Z,71.64
2023-04-26T07:07:37.508Z,70.65
2023-04-26T07:10:08.867Z,69.81
2023-04-26T07:12:37.210Z,67.97
2023-04-26T07:15:08.084Z,68.26
2023-04-26T07:17:36.505Z,67.67
2023-04-26T07:20:06.822Z,67.13
2023-04-26T07:22:35.238Z,67.05
2023-04-26T07:25:04.576Z,64.22
2023-04-26T07:27:33.073Z,65.08
2023-04-26T07:30:01.436Z,65.83
2023-04-26T07:32:29.979Z,65.07
2023-04-26T07:34:58.670Z,62.49
2023-04-26T07:37:27.079Z,60.63
2023-04-26T07:39:55.653Z,61.09
2023-04-26T07:42:24.835Z,61.60
2023-04-26T07:44:53.127Z,62.17
2023-04-26T07:47:21.382Z,62.45
2023-04-26T07:49:54.218Z,61.50
2023-04-26T07:52:22.526Z,60.89
2023-04-26T07:54:51.141Z,60.87
2023-04-26T07:57:20.764Z,60.79
2023-04-26T07:59:49.623Z,59.85
2023-04-26T08:02:20.381Z,60.54
2023-04-26T08:04:52.031Z,58.77
2023-04-26T08:07:20.997Z,57.34
2023-04-26T08:09:49.254Z,56.27
2023-04-26T08:12:17.593Z,56.91
2023-04-26T08:14:46.170Z,57.29
2023-04-26T08:17:14.493Z,57.41
2023-04-26T08:19:42.838Z,56.84
2023-04-26T08:22:11.186Z,57.06
2023-04-26T08:24:39.433Z,57.29
2023-04-26T08:27:07.821Z,57.49
2023-04-26T08:29:36.621Z,56.88
2023-04-26T08:32:05.247Z,57.31
2023-04-26T08:34:35.921Z,57.93
2023-04-26T08:37:04.850Z,57.28
2023-04-26T08:39:33.826Z,56.39
2023-04-26T08:42:10.157Z,56.71
2023-04-26T08:44:38.530Z,56.84
2023-04-26T08:47:13.682Z,56.68
2023-04-26T08:49:43.996Z,55.48
2023-04-26T08:52:15.582Z,54.99
2023-04-26T08:54:44.295Z,55.32
2023-04-26T08:57:13.234Z,55.47
2023-04-26T08:59:43.464Z,56.28
2023-04-26T09:02:14.341Z,56.20
2023-04-26T09:04:43.184Z,55.25
2023-04-26T09:07:15.993Z,56.28
2023-04-26T09:09:47.781Z,57.83
2023-04-26T09:12:20.368Z,57.46
2023-04-26T09:14:48.958Z,55.97
2023-04-26T09:17:28.127Z,56.57
2023-04-26T09:19:56.951Z,57.34
2023-04-26T09:22:35.916Z,55.51
2023-04-26T09:25:06.617Z,55.47
2023-04-26T09:27:37.468Z,55.85
2023-04-26T09:30:09.749Z,56.88
2023-04-26T09:32:46.258Z,57.37
2023-04-26T09:35:30.205Z,56.75
2023-04-26T09:38:05.978Z,54.48
2023-04-26T09:40:38.589Z,54.15
2023-04-26T09:43:08.693Z,54.52
2023-04-26T09:45:46.048Z,54.95
2023-04-26T09:48:16.290Z,54.68
2023-04-26T09:50:45.784Z,54.92
2023-04-26T09:53:26.448Z,54.68
2023-04-26T09:55:54.885Z,55.05
2023-04-26T09:58:23.623Z,55.40
2023-04-26T10:00:54.003Z,53.74
2023-04-26T10:03:24.885Z,53.71
2023-04-26T10:05:53.612Z,53.34
2023-04-26T10:08:21.992Z,54.22
2023-04-26T10:10:51.683Z,54.25
2023-04-26T10:13:20.210Z,52.76
2023-04-26T10:15:48.928Z,51.04
2023-04-26T10:18:17.626Z,51.14
2023-04-26T10:20:51.110Z,51.76
2023-04-26T10:23:21.505Z,51.66
2023-04-26T10:25:49.922Z,51.17
2023-04-26T10:28:19.562Z,50.77
2023-04-26T10:30:58.230Z,51.19
2023-04-26T10:33:26.742Z,51.05
2023-04-26T10:36:12.746Z,50.75
2023-04-26T10:38:42.884Z,50.92
2023-04-26T10:41:31.651Z,50.97
2023-04-26T10:44:23.145Z,50.23
2023-04-26T10:46:52.048Z,48.80
2023-04-26T10:49:24.311Z,49.98
2023-04-26T10:52:11.833Z,49.68
2023-04-26T10:54:48.427Z,50.24
2023-04-26T10:57:17.230Z,49.95
2023-04-26T11:00:20.344Z,50.17
2023-04-26T11:02:55.732Z,49.67
2023-04-26T11:05:42.135Z,49.22
2023-04-26T11:08:17.438Z,49.08
2023-04-26T11:10:50.895Z,48.27
2023-04-26T11:13:20.248Z,47.97
2023-04-26T11:15:53.314Z,49.02
2023-04-26T11:18:21.999Z,49.47
2023-04-26T11:20:50.558Z,49.51
2023-04-26T11:23:19.695Z,49.69
2023-04-26T11:25:48.404Z,48.84
2023-04-26T11:28:18.310Z,47.95
2023-04-26T11:30:46.749Z,47.91
2023-04-26T11:33:19.519Z,48.03
2023-04-26T11:35:47.937Z,48.30
2023-04-26T11:38:17.100Z,48.54
2023-04-26T11:40:45.851Z,49.33
2023-04-26T11:43:14.932Z,50.10
2023-04-26T11:45:43.308Z,50.26
2023-04-26T11:48:13.397Z,48.96
2023-04-26T11:50:42.059Z,48.60
2023-04-26T11:53:10.411Z,48.98
2023-04-26T11:55:40.328Z,47.80
2023-04-26T11:58:13.457Z,46.18
2023-04-26T12:00:58.425Z,45.64
2023-04-26T12:03:32.789Z,44.97
2023-04-26T12:06:01.827Z,44.01
2023-04-26T12:08:30.388Z,42.92
2023-04-26T12:11:02.405Z,43.19
2023-04-26T12:13:32.030Z,44.56
2023-04-26T12:16:00.453Z,44.52
2023-04-26T12:18:32.657Z,45.17
2023-04-26T12:21:01.271Z,44.90
2023-04-26T12:23:38.744Z,45.52
2023-04-26T12:26:10.103Z,45.81
2023-04-26T12:28:38.541Z,45.84
2023-04-26T12:31:07.765Z,45.06
2023-04-26T12:33:36.389Z,45.79
2023-04-26T12:36:09.469Z,46.26
2023-04-26T12:38:37.859Z,45.35
2023-04-26T12:41:06.581Z,45.54
2023-04-26T12:43:35.199Z,44.93
2023-04-26T12:46:03.754Z,45.85
2023-04-26T12:48:32.059Z,45.58
2023-04-26T12:51:00.542Z,45.76
2023-04-26T12:53:28.881Z,45.92
2023-04-26T12:55:57.164Z,44.66
2023-04-26T12:58:25.969Z,45.10
2023-04-26T13:00:54.762Z,45.70
2023-04-26T13:03:23.267Z,45.91
2023-04-26T13:05:52.249Z,45.99
2023-04-26T13:08:22.076Z,46.65
2023-04-26T13:10:50.687Z,46.68
2023-04-26T13:13:21.974Z,46.36
2023-04-26T13:15:53.211Z,46.42
2023-04-26T13:18:21.511Z,45.98
2023-04-26T13:20:49.843Z,46.24
2023-04-26T13:23:18.484Z,45.51
2023-04-26T13:25:47.525Z,45.74
2023-04-26T13:28:16.202Z,44.94
2023-04-26T13:30:45.486Z,45.41
2023-04-26T13:33:13.803Z,46.45
2023-04-26T13:35:42.242Z,45.80
2023-04-26T13:38:11.619Z,44.47
2023-04-26T13:40:40.001Z,44.19
2023-04-26T13:43:08.318Z,44.84
2023-04-26T13:45:36.884Z,45.58
2023-04-26T13:48:05.902Z,45.97
2023-04-26T13:50:36.704Z,46.02
2023-04-26T13:53:05.183Z,45.51
2023-04-26T13:55:33.562Z,44.82
2023-04-26T13:58:02.027Z,45.14
2023-04-26T14:00:30.877Z,44.94
2023-04-26T14:02:59.470Z,45.25
2023-04-26T14:05:27.916Z,45.19
2023-04-26T14:07:56.618Z,44.75
2023-04-26T14:10:25.691Z,45.23
2023-04-26T14:12:55.739Z,45.29
2023-04-26T14:15:25.299Z,45.56
2023-04-26T14:17:53.626Z,45.41
2023-04-26T14:20:21.912Z,45.04
2023-04-26T14:22:50.724Z,44.17
2023-04-26T14:25:19.435Z,44.48
2023-04-26T14:27:48.221Z,44.93
2023-04-26T14:30:16.968Z,44.82
2023-04-26T14:32:46.162Z,45.59
2023-04-26T14:35:14.619Z,45.75
2023-04-26T14:37:43.053Z,45.87
2023-04-26T14:40:14.217Z,46.44
2023-04-26T14:42:45.565Z,46.58
2023-04-26T14:45:14.198Z,47.27
2023-04-26T14:47:42.619Z,47.39
2023-04-26T14:50:13.587Z,47.12
2023-04-26T14:52:42.161Z,46.83
2023-04-26T14:55:10.717Z,47.15
2023-04-26T14:57:42.088Z,47.39
2023-04-26T15:00:14.771Z,46.63
2023-04-26T15:02:43.676Z,46.38
2023-04-26T15:05:12.836Z,46.07
2023-04-26T15:07:41.296Z,46.59
2023-04-26T15:10:10.743Z,47.33
2023-04-26T15:12:39.222Z,47.90
2023-04-26T15:15:09.530Z,48.26
2023-04-26T15:17:38.236Z,48.63
2023-04-26T15:20:09.045Z,48.83
2023-04-26T15:22:38.971Z,49.34
2023-04-26T15:25:12.574Z,49.57
2023-04-26T15:27:41.131Z,49.72
2023-04-26T15:30:10.646Z,49.84
2023-04-26T15:32:39.336Z,49.85
2023-04-26T15:35:08.894Z,49.55
2023-04-26T15:37:37.971Z,49.29
2023-04-26T15:40:09.959Z,49.82
2023-04-26T15:42:39.285Z,50.27
2023-04-26T15:45:10.223Z,49.99
2023-04-26T15:47:39.153Z,49.98
2023-04-26T15:50:09.225Z,50.22
2023-04-26T15:52:39.457Z,49.65
2023-04-26T15:55:10.065Z,49.31
2023-04-26T15:57:42.395Z,49.28
2023-04-26T16:00:13.917Z,48.46
2023-04-26T16:02:43.917Z,48.26
2023-04-26T16:05:12.858Z,48.62
2023-04-26T16:07:41.396Z,48.52
2023-04-26T16:10:11.092Z,47.63
2023-04-26T16:12:41.118Z,48.15
2023-04-26T16:15:11.032Z,48.48
2023-04-26T16:17:39.542Z,48.29
2023-04-26T16:20:09.917Z,48.43
2023-04-26T16:22:38.404Z,48.35
2023-04-26T16:25:08.973Z,49.09
2023-04-26T16:27:37.634Z,49.73
2023-04-26T16:30:08.172Z,49.43
2023-04-26T16:32:36.485Z,48.60
2023-04-26T16:35:05.873Z,48.82
2023-04-26T16:37:34.313Z,48.95
2023-04-26T16:40:04.516Z,48.97
2023-04-26T16:42:32.854Z,49.07
2023-04-26T16:45:01.565Z,49.15
2023-04-26T16:47:29.897Z,49.19
2023-04-26T16:49:58.233Z,49.54
2023-04-26T16:52:26.602Z,49.79
2023-04-26T16:54:55.023Z,49.95
2023-04-26T16:57:24.245Z,49.79
2023-04-26T16:59:53.069Z,49.90
2023-04-26T17:02:24.100Z,49.92
2023-04-26T17:04:52.540Z,49.90
2023-04-26T17:07:21.713Z,50.09
2023-04-26T17:09:54.463Z,50.23
2023-04-26T17:12:23.330Z,50.41
2023-04-26T17:14:52.162Z,50.62
2023-04-26T17:17:20.366Z,50.92
2023-04-26T17:19:48.934Z,50.93
2023-04-26T17:22:17.416Z,51.34
2023-04-26T17:24:45.723Z,51.67
2023-04-26T17:27:14.733Z,51.70
2023-04-26T17:29:44.493Z,51.28
2023-04-26T17:32:12.830Z,51.31
2023-04-26T17:34:42.640Z,51.13
2023-04-26T17:37:11.013Z,50.75
2023-04-26T17:39:39.238Z,50.84
2023-04-26T17:42:08.145Z,51.14
2023-04-26T17:44:36.448Z,51.05
2023-04-26T17:47:05.491Z,51.21
2023-04-26T17:49:34.025Z,51.26
2023-04-26T17:52:02.312Z,51.16
2023-04-26T17:54:30.649Z,51.44
2023-04-26T17:56:59.338Z,51.45
2023-04-26T17:59:27.731Z,51.49
2023-04-26T18:01:56.031Z,51.38
2023-04-26T18:04:24.797Z,51.50
2023-04-26T18:06:53.521Z,51.45
2023-04-26T18:09:21.893Z,51.34
2023-04-26T18:11:51.195Z,51.68
2023-04-26T18:14:19.464Z,51.72
2023-04-26T18:16:48.086Z,51.26
2023-04-26T18:19:16.774Z,51.52
2023-04-26T18:21:45.434Z,51.71
2023-04-26T18:24:13.689Z,51.57
2023-04-26T18:26:43.492Z,51.58
2023-04-26T18:29:11.930Z,51.62
2023-04-26T18:31:40.252Z,51.36
2023-04-26T18:34:11.413Z,51.25
2023-04-26T18:36:39.729Z,51.01
2023-04-26T18:39:08.052Z,51.11
2023-04-26T18:41:36.602Z,51.10
2023-04-26T18:44:09.961Z,51.10
2023-04-26T18:46:38.756Z,50.91
2023-04-26T18:49:07.188Z,50.84
2023-04-26T18:51:35.628Z,50.99
2023-04-26T18:54:04.874Z,51.05
2023-04-26T18:56:33.633Z,50.79
2023-04-26T18:59:01.980Z,50.96
2023-04-26T19:01:30.825Z,50.58
2023-04-26T19:03:59.698Z,50.61
2023-04-26T19:06:28.263Z,50.88
2023-04-26T19:08:57.539Z,50.73
2023-04-26T19:11:26.253Z,50.73
2023-04-26T19:13:54.885Z,50.59
2023-04-26T19:16:23.864Z,50.46
2023-04-26T19:18:52.692Z,50.14
2023-04-26T19:21:21.098Z,50.37
2023-04-26T19:23:49.672Z,50.36
2023-04-26T19:26:18.046Z,50.39
2023-04-26T19:28:46.381Z,50.40
2023-04-26T19:31:14.833Z,50.37
2023-04-26T19:33:45.315Z,50.40
2023-04-26T19:36:13.729Z,50.39
2023-04-26T19:38:42.596Z,50.40
2023-04-26T19:41:10.891Z,50.33
2023-04-26T19:43:39.126Z,50.52
2023-04-26T19:46:12.318Z,50.15
2023-04-26T19:48:40.765Z,50.13
2023-04-26T19:51:13.629Z,50.22
2023-04-26T19:53:42.043Z,50.63
2023-04-26T19:56:10.709Z,50.26
2023-04-26T19:58:39.311Z,50.48
2023-04-26T20:01:07.663Z,50.41
2023-04-26T20:03:38.608Z,50.49
2023-04-26T20:06:08.962Z,50.53
2023-04-26T20:08:37.569Z,50.49
2023-04-26T20:11:06.113Z,50.70
2023-04-26T20:13:35.568Z,50.61
2023-04-26T20:16:04.386Z,50.75
2023-04-26T20:18:32.716Z,50.99
2023-04-26T20:21:01.183Z,51.22
2023-04-26T20:23:30.476Z,51.02
2023-04-26T20:25:58.844Z,51.09
2023-04-26T20:28:27.175Z,51.28
2023-04-26T20:30:55.928Z,51.55
2023-04-26T20:33:24.570Z,51.70
2023-04-26T20:35:53.122Z,52.12
2023-04-26T20:38:21.482Z,52.16
2023-04-26T20:40:50.104Z,52.33
2023-04-26T20:43:18.488Z,52.30
2023-04-26T20:45:47.160Z,52.69
2023-04-26T20:48:15.741Z,53.18
2023-04-26T20:50:44.070Z,53.20
2023-04-26T20:53:12.612Z,53.40
2023-04-26T20:55:41.005Z,53.50
2023-04-26T20:58:09.410Z,53.50
2023-04-26T21:00:37.888Z,53.41
2023-04-26T21:03:06.324Z,53.53
2023-04-26T21:05:35.339Z,53.73
2023-04-26T21:08:03.775Z,53.99
2023-04-26T21:10:32.669Z,53.76
2023-04-26T21:13:01.211Z,53.81
2023-04-26T21:15:29.619Z,53.93
2023-04-26T21:17:58.311Z,54.26
2023-04-26T21:20:26.819Z,54.48
2023-04-26T21:22:55.221Z,54.37
2023-04-26T21:25:23.567Z,54.61
2023-04-26T21:27:52.152Z,54.50
2023-04-26T21:30:21.228Z,54.64
2023-04-26T21:35:50.847Z,54.96
2023-04-26T21:38:19.861Z,55.24
2023-04-26T21:40:48.338Z,55.05
2023-04-26T21:43:19.422Z,55.43
2023-04-26T21:45:49.417Z,55.17
2023-04-26T21:48:17.828Z,55.73
2023-04-26T21:50:49.276Z,55.63
2023-04-26T21:53:18.171Z,55.87
2023-04-26T21:55:52.390Z,56.24
2023-04-26T21:58:19.984Z,56.05
2023-04-26T22:00:48.625Z,56.32
2023-04-26T22:03:17.510Z,56.45
2023-04-26T22:05:46.323Z,57.09
2023-04-26T22:08:14.744Z,57.32
2023-04-26T22:10:43.288Z,57.56
2023-04-26T22:13:11.895Z,57.47
2023-04-26T22:15:40.419Z,58.08
2023-04-26T22:18:09.030Z,57.66
2023-04-26T22:20:37.871Z,57.95
2023-04-26T22:23:06.548Z,58.47
2023-04-26T22:25:35.394Z,58.27
2023-04-26T22:28:03.818Z,58.45
2023-04-26T22:30:32.611Z,58.80
2023-04-26T22:33:01.249Z,58.67
2023-04-26T22:35:29.893Z,59.41
2023-04-26T22:37:58.357Z,59.20
2023-04-26T22:40:27.097Z,59.39
2023-04-26T22:42:55.840Z,60.20
2023-04-26T22:45:25.395Z,59.79
2023-04-26T22:47:53.982Z,60.10
2023-04-26T22:50:23.395Z,60.48
2023-04-26T22:52:52.063Z,60.75
2023-04-26T22:55:20.913Z,60.60
2023-04-26T22:57:49.304Z,60.48
2023-04-26T23:00:19.372Z,60.52
2023-04-26T23:02:49.980Z,60.72
2023-04-26T23:05:18.833Z,61.10
2023-04-26T23:07:47.492Z,61.11
2023-04-26T23:10:16.050Z,61.20
2023-04-26T23:12:44.606Z,61.04
2023-04-26T23:15:13.166Z,61.35
2023-04-26T23:17:42.056Z,61.33
2023-04-26T23:20:11.704Z,61.46
2023-04-26T23:22:40.951Z,61.64
2023-04-26T23:25:11.233Z,61.74
2023-04-26T23:27:40.251Z,61.61
2023-04-26T23:30:10.264Z,61.98
2023-04-26T23:32:39.134Z,62.25
2023-04-26T23:35:09.135Z,62.31
2023-04-26T23:37:37.681Z,62.16
2023-04-26T23:40:09.568Z,62.26
2023-04-26T23:42:38.060Z,62.43
2023-04-26T23:45:09.185Z,62.66
2023-04-26T23:47:38.419Z,62.43
2023-04-26T23:50:09.169Z,62.52
2023-04-26T23:52:37.650Z,62.74
2023-04-26T23:55:07.864Z,62.55
2023-04-26T23:57:36.667Z,62.62
